Airfield :
LOGIN :

Register | Disclaimer

   EN    FR    IT 

 










Legend :    VFR   Marginal VFR   IFR   Intensive IFR   Very Intensive IFR
Visi :
Ceiling :
>= 8 km
>= 3000ft
5 to 8 km
1000 to 3000 ft
1500m to 5 km
500 to 1000 ft
800 to 1500m
200 to 500 ft
< 800m
< 200 ft
Symbols :   Thunderstorms  Fog  Heavy snow  Heavy precipitations  Wind > 20 kt
SIGMETs :     Misc.  Thunderstorms  Icing  Turbulence  Mountain Waves  Volcanic Ashes






- Airport Elevation : 200 ft


EBBL - Klein Brogel AB

CURRENT METAR :
  • 301422Z 02006KT 8000 SCT015 BKN026 08/05 Q1024 WHT WHT TEMPO GRN

EXPIRED METARs :
  • 301355Z 02006KT 8000 SCT014 BKN026 08/06 Q1024 GRN GRN TEMPO WHT
  • 301325Z 01005KT 5000 BR SCT012 BKN026 08/05 Q1024 GRN GRN TEMPO WHT
  • 301303Z 34004KT 5000 BR SCT012 BKN026 08/06 Q1024 GRN GRN TEMPO WHT
  • 301247Z 33004KT 5000 BR SCT012 BKN026 08/06 Q1024 GRN GRN TEMPO YLO
  • 301225Z 31004KT 5000 BR FEW012 BKN026 08/06 Q1024 WHT WHT TEMPO GRN
  • 301203Z 33003KT 6000 SCT026 BKN050 09/06 Q1024 WHT WHT TEMPO GRN
  • 301155Z 35004KT 6000 SCT026 BKN050 08/06 Q1024 WHT WHT TEMPO GRN

TAF TAF EBBL
Valid from the 30 at 10:00 until the 30 at 19:00 UTC


300841Z 3010/3019 VRB02KT 3000 BR BKN004
PROB30
TEMPO 3010/3011 0800 FG BKN001
TEMPO 3010/3012 1500 SCT002 BKN010
BECMG 3012/3014 02004KT 6000 NSW SCT008 BKN018
PROB30
TEMPO 3013/3016 8000 FEW010 BKN018
BECMG 3017/3019 3000 BR BKN005



MET'MAP, your aeronautical weather chart ! - Copyright ORBIFLY December 2007 - Disclaimer

ORBIFLY MET'MAP TEAM :

Programming & Development : Alexandra Zaïnal
Original concept : Baudouin d'Aumeries
Technical & hardware support : Manuel Goepfert
Assistance : Marc-Olivier Méhu




SOURCES & CREDITS :

   NOAA